Pampero — V7JG5 — position and weather

sailwx.info

Track history (hours):
 
Tides and Currents Weather Stations Pressure Air Temp Water Temp Dewpoint Dewpoint Depression Visibility Wind Speed Wind Dir Waves Ship Positions

Pampero

Last reported at 2018-Apr-19 20:26 UTC. Time now 2018-Apr-22 08:38 UTC.
Position N 31°14' E 124°42'.

Length 226 m; draft 8.7 m.

Type: Tanker. MMSI: 538006047.

Date/timePositionNaut miles runAvg speedWind from/ knotsBaromVisibWave heightAir tempDewpointWater temp
2018-Apr-19 20:26N 31°14' E 124°42'3412.6
2018-Apr-19 17:43N 31°42' E 125°04'513.5
2018-Apr-19 17:21N 31°46' E 125°09'1013.1
2018-Apr-19 16:36N 31°55' E 125°13'413.7
2018-Apr-19 16:19N 31°59' E 125°15'514.5
2018-Apr-19 15:58N 32°02' E 125°19'714.8
2018-Apr-19 15:30N 32°05' E 125°26'712.6
2018-Apr-19 14:56N 32°13' E 125°27'512.8
2018-Apr-19 14:30N 32°18' E 125°26'1113.5
2018-Apr-19 13:39N 32°27' E 125°17'315.0
2018-Apr-19 13:28N 32°29' E 125°15'915.1
2018-Apr-19 12:52N 32°36' E 125°08'514.8
2018-Apr-19 12:30N 32°40' E 125°04'815.0
2018-Apr-19 11:59N 32°46' E 124°58'  
2018-Apr-15 01:34N 34°00' E 129°55'215.7
2018-Apr-15 01:24N 34°00' E 129°58'615.6
2018-Apr-15 01:00N 34°01' E 130°05'815.6
2018-Apr-15 00:30N 34°02' E 130°15'815.7
2018-Apr-15 00:00N 34°02' E 130°24'815.9
2018-Apr-14 23:30N 34°03' E 130°34'815.2
2018-Apr-14 23:00N 34°04' E 130°43'713.6
2018-Apr-14 22:30N 34°02' E 130°51'5 9.4
2018-Apr-14 22:00N 33°57' E 130°52'4 7.3
2018-Apr-14 21:31N 33°56' E 130°56'5 8.4
2018-Apr-14 20:58N 33°59' E 131°01'510.0
2018-Apr-14 20:31N 33°56' E 131°05'3 6.7
2018-Apr-14 20:00N 33°54' E 131°09'3 6.6
2018-Apr-14 19:30N 33°52' E 131°12'3 6.9
2018-Apr-14 19:01N 33°51' E 131°16'3 6.9
2018-Apr-14 18:31N 33°50' E 131°20'3 6.3
2018-Apr-14 18:01N 33°50' E 131°24'4 7.0
2018-Apr-14 17:31N 33°49' E 131°28'3 6.7
2018-Apr-14 17:01N 33°48' E 131°32'3 6.3
2018-Apr-14 16:30N 33°48' E 131°35'3 6.1
2018-Apr-14 16:00N 33°47' E 131°39'3 6.3
2018-Apr-14 15:30N 33°46' E 131°43'611.6
2018-Apr-14 15:00N 33°45' E 131°50'3 6.9
2018-Apr-14 14:31N 33°44' E 131°54'3 5.3
2018-Apr-14 13:58N 33°42' E 131°56'3 6.5
2018-Apr-14 13:30N 33°39' E 131°56'3 5.8
2018-Apr-14 12:57N 33°36' E 131°56'4 6.5
2018-Apr-14 12:24N 33°32' E 131°57'3 6.9
2018-Apr-14 12:00N 33°30' E 131°57'4 7.2
2018-Apr-14 11:25N 33°26' E 131°58'3 8.0
2018-Apr-14 11:00N 33°22' E 131°59'4 6.5
2018-Apr-14 10:24N 33°19' E 131°60'3 7.0
2018-Apr-14 09:55N 33°15' E 131°58'2 3.1
2018-Apr-14 09:26N 33°17' E 131°59'410.0
2018-Apr-14 09:00N 33°21' E 131°59'2914.6
2018-Apr-14 07:01N 33°42' E 132°23'116.1
2018-Apr-14 06:58N 33°42' E 132°23'815.7
2018-Apr-14 06:27N 33°48' E 132°30'714.9
2018-Apr-14 06:00N 33°53' E 132°36'714.2
2018-Apr-14 05:30N 33°58' E 132°43'4 0.1
2018-Apr-13 01:39N 34°01' E 132°46'211.7
2018-Apr-13 01:30N 33°59' E 132°44'611.7
2018-Apr-13 01:00N 33°55' E 132°39'4 1.3
2018-Apr-12 22:02N 33°51' E 132°41'0 0.1
2018-Apr-12 20:32N 33°51' E 132°41'0 0.0
2018-Apr-12 20:29N 33°51' E 132°41'0 0.0
2018-Apr-12 19:59N 33°51' E 132°41'0 0.0
2018-Apr-12 18:38N 33°51' E 132°41'0 0.2
2018-Apr-12 18:20N 33°51' E 132°41'0 0.0
2018-Apr-12 12:20N 33°51' E 132°41'0 0.0
2018-Apr-12 11:56N 33°51' E 132°41'0 0.1
2018-Apr-12 08:21N 33°51' E 132°40'6 8.7
2018-Apr-12 07:42N 33°49' E 132°34'3816.3
2018-Apr-12 05:22N 33°23' E 132°00'513.2
2018-Apr-12 04:58N 33°18' E 132°01'  
Track history (hours):
 
Tides and Currents Weather Stations Pressure Air Temp Water Temp Dewpoint Dewpoint Depression Visibility Wind Speed Wind Dir Waves Ship Positions

Pampero

Last reported at 2018-Apr-19 20:26 UTC. Time now 2018-Apr-22 08:38 UTC.
Position N 31°14' E 124°42'.

Length 226 m; draft 8.7 m.

Type: Tanker. MMSI: 538006047.

Date/timePositionNaut miles runAvg speedWind from/ knotsBaromVisibWave heightAir tempDewpointWater temp
2018-Apr-19 20:26N 31°14' E 124°42'3412.6
2018-Apr-19 17:43N 31°42' E 125°04'513.5
2018-Apr-19 17:21N 31°46' E 125°09'1013.1
2018-Apr-19 16:36N 31°55' E 125°13'413.7
2018-Apr-19 16:19N 31°59' E 125°15'514.5
2018-Apr-19 15:58N 32°02' E 125°19'714.8
2018-Apr-19 15:30N 32°05' E 125°26'712.6
2018-Apr-19 14:56N 32°13' E 125°27'512.8
2018-Apr-19 14:30N 32°18' E 125°26'1113.5
2018-Apr-19 13:39N 32°27' E 125°17'315.0
2018-Apr-19 13:28N 32°29' E 125°15'915.1
2018-Apr-19 12:52N 32°36' E 125°08'514.8
2018-Apr-19 12:30N 32°40' E 125°04'815.0
2018-Apr-19 11:59N 32°46' E 124°58'  
2018-Apr-15 01:34N 34°00' E 129°55'215.7
2018-Apr-15 01:24N 34°00' E 129°58'615.6
2018-Apr-15 01:00N 34°01' E 130°05'815.6
2018-Apr-15 00:30N 34°02' E 130°15'815.7
2018-Apr-15 00:00N 34°02' E 130°24'815.9
2018-Apr-14 23:30N 34°03' E 130°34'815.2
2018-Apr-14 23:00N 34°04' E 130°43'713.6
2018-Apr-14 22:30N 34°02' E 130°51'5 9.4
2018-Apr-14 22:00N 33°57' E 130°52'4 7.3
2018-Apr-14 21:31N 33°56' E 130°56'5 8.4
2018-Apr-14 20:58N 33°59' E 131°01'510.0
2018-Apr-14 20:31N 33°56' E 131°05'3 6.7
2018-Apr-14 20:00N 33°54' E 131°09'3 6.6
2018-Apr-14 19:30N 33°52' E 131°12'3 6.9
2018-Apr-14 19:01N 33°51' E 131°16'3 6.9
2018-Apr-14 18:31N 33°50' E 131°20'3 6.3
2018-Apr-14 18:01N 33°50' E 131°24'4 7.0
2018-Apr-14 17:31N 33°49' E 131°28'3 6.7
2018-Apr-14 17:01N 33°48' E 131°32'3 6.3
2018-Apr-14 16:30N 33°48' E 131°35'3 6.1
2018-Apr-14 16:00N 33°47' E 131°39'3 6.3
2018-Apr-14 15:30N 33°46' E 131°43'611.6
2018-Apr-14 15:00N 33°45' E 131°50'3 6.9
2018-Apr-14 14:31N 33°44' E 131°54'3 5.3
2018-Apr-14 13:58N 33°42' E 131°56'3 6.5
2018-Apr-14 13:30N 33°39' E 131°56'3 5.8
2018-Apr-14 12:57N 33°36' E 131°56'4 6.5
2018-Apr-14 12:24N 33°32' E 131°57'3 6.9
2018-Apr-14 12:00N 33°30' E 131°57'4 7.2
2018-Apr-14 11:25N 33°26' E 131°58'3 8.0
2018-Apr-14 11:00N 33°22' E 131°59'4 6.5
2018-Apr-14 10:24N 33°19' E 131°60'3 7.0
2018-Apr-14 09:55N 33°15' E 131°58'2 3.1
2018-Apr-14 09:26N 33°17' E 131°59'410.0
2018-Apr-14 09:00N 33°21' E 131°59'2914.6
2018-Apr-14 07:01N 33°42' E 132°23'116.1
2018-Apr-14 06:58N 33°42' E 132°23'815.7
2018-Apr-14 06:27N 33°48' E 132°30'714.9
2018-Apr-14 06:00N 33°53' E 132°36'714.2
2018-Apr-14 05:30N 33°58' E 132°43'4 0.1
2018-Apr-13 01:39N 34°01' E 132°46'211.7
2018-Apr-13 01:30N 33°59' E 132°44'611.7
2018-Apr-13 01:00N 33°55' E 132°39'4 1.3
2018-Apr-12 22:02N 33°51' E 132°41'0 0.1
2018-Apr-12 20:32N 33°51' E 132°41'0 0.0
2018-Apr-12 20:29N 33°51' E 132°41'0 0.0
2018-Apr-12 19:59N 33°51' E 132°41'0 0.0
2018-Apr-12 18:38N 33°51' E 132°41'0 0.2
2018-Apr-12 18:20N 33°51' E 132°41'0 0.0
2018-Apr-12 12:20N 33°51' E 132°41'0 0.0
2018-Apr-12 11:56N 33°51' E 132°41'0 0.1
2018-Apr-12 08:21N 33°51' E 132°40'6 8.7
2018-Apr-12 07:42N 33°49' E 132°34'3816.3
2018-Apr-12 05:22N 33°23' E 132°00'513.2
2018-Apr-12 04:58N 33°18' E 132°01'  

Dump ship's entire track history